Summerdale, Alabama
Current Conditions -  °F | °C
As of 10:15 PM on Friday 19 Dec 2014 (Local Time) from KCQF Reporting Station
Overcast Overcast  
Wind Chill: 42°   Ceiling: 600
Heat Index: 46°   Visibility: 10mi
Dew Point: 45°   Wind: 8mph
Humidity: 93%   Direction: 50°NE
Pressure: 30.11"   Gusts: NA
Location:  30.49°N, 87.7°W
Report Text: KCQF 200415Z AUTO 05007KT 10SM OVC006 08/07 A3011 RMK AO2
Loading
Personal Weather Stations






























Interactive Weather Map New forecast layout! Learn more

10-Day Weather Forecast

Advertisements
Track Severe Weather on mobile